sensor_id;sensor_type;location;lat;lon;timestamp;pressure;altitude;pressure_sealevel;temperature
20289;BMP180;10303;51.960;8.372;2023-05-27T00:00:08;101814.00;;;13.10
20289;BMP180;10303;51.960;8.372;2023-05-27T00:02:35;101806.00;;;13.10
20289;BMP180;10303;51.960;8.372;2023-05-27T00:05:02;101810.00;;;13.00
20289;BMP180;10303;51.960;8.372;2023-05-27T00:07:27;101810.00;;;13.00
20289;BMP180;10303;51.960;8.372;2023-05-27T00:09:54;101812.00;;;13.00
20289;BMP180;10303;51.960;8.372;2023-05-27T00:12:20;101812.00;;;13.00
20289;BMP180;10303;51.960;8.372;2023-05-27T00:14:46;101803.00;;;13.00
20289;BMP180;10303;51.960;8.372;2023-05-27T00:17:12;101807.00;;;13.00
20289;BMP180;10303;51.960;8.372;2023-05-27T00:19:42;101815.00;;;13.00
20289;BMP180;10303;51.960;8.372;2023-05-27T00:22:11;101808.00;;;12.90
20289;BMP180;10303;51.960;8.372;2023-05-27T00:24:37;101808.00;;;13.00
20289;BMP180;10303;51.960;8.372;2023-05-27T00:27:09;101815.00;;;12.90
20289;BMP180;10303;51.960;8.372;2023-05-27T00:29:35;101808.00;;;12.90
20289;BMP180;10303;51.960;8.372;2023-05-27T00:32:03;101806.00;;;12.90
20289;BMP180;10303;51.960;8.372;2023-05-27T00:34:31;101805.00;;;12.90
20289;BMP180;10303;51.960;8.372;2023-05-27T00:36:58;101802.00;;;12.90
20289;BMP180;10303;51.960;8.372;2023-05-27T00:39:24;101813.00;;;12.90
20289;BMP180;10303;51.960;8.372;2023-05-27T00:41:51;101809.00;;;12.90
20289;BMP180;10303;51.960;8.372;2023-05-27T00:44:17;101812.00;;;12.90
20289;BMP180;10303;51.960;8.372;2023-05-27T00:46:48;101814.00;;;12.80
20289;BMP180;10303;51.960;8.372;2023-05-27T00:49:14;101804.00;;;12.80
20289;BMP180;10303;51.960;8.372;2023-05-27T00:51:41;101793.00;;;12.80
20289;BMP180;10303;51.960;8.372;2023-05-27T00:54:08;101808.00;;;12.80
20289;BMP180;10303;51.960;8.372;2023-05-27T00:56:35;101791.00;;;12.80
20289;BMP180;10303;51.960;8.372;2023-05-27T00:59:02;101797.00;;;12.80
20289;BMP180;10303;51.960;8.372;2023-05-27T01:01:28;101794.00;;;12.80
20289;BMP180;10303;51.960;8.372;2023-05-27T01:03:56;101807.00;;;12.70
20289;BMP180;10303;51.960;8.372;2023-05-27T01:06:48;101803.00;;;12.70
20289;BMP180;10303;51.960;8.372;2023-05-27T01:09:35;101800.00;;;12.70
20289;BMP180;10303;51.960;8.372;2023-05-27T01:12:10;101806.00;;;12.70
20289;BMP180;10303;51.960;8.372;2023-05-27T01:14:41;101799.00;;;12.70
20289;BMP180;10303;51.960;8.372;2023-05-27T01:17:11;101795.00;;;12.60
20289;BMP180;10303;51.960;8.372;2023-05-27T01:19:41;101802.00;;;12.60
20289;BMP180;10303;51.960;8.372;2023-05-27T01:22:15;101795.00;;;12.60
20289;BMP180;10303;51.960;8.372;2023-05-27T01:24:41;101796.00;;;12.60
20289;BMP180;10303;51.960;8.372;2023-05-27T01:27:09;101790.00;;;12.60
20289;BMP180;10303;51.960;8.372;2023-05-27T01:29:40;101799.00;;;12.60
20289;BMP180;10303;51.960;8.372;2023-05-27T01:32:14;101785.00;;;12.60
20289;BMP180;10303;51.960;8.372;2023-05-27T01:37:45;101780.00;;;12.50
20289;BMP180;10303;51.960;8.372;2023-05-27T01:40:13;101783.00;;;12.50
20289;BMP180;10303;51.960;8.372;2023-05-27T01:42:41;101784.00;;;12.50
20289;BMP180;10303;51.960;8.372;2023-05-27T01:45:10;101782.00;;;12.50
20289;BMP180;10303;51.960;8.372;2023-05-27T01:47:36;101789.00;;;12.50
20289;BMP180;10303;51.960;8.372;2023-05-27T01:50:05;101777.00;;;12.50
20289;BMP180;10303;51.960;8.372;2023-05-27T01:52:31;101787.00;;;12.50
20289;BMP180;10303;51.960;8.372;2023-05-27T01:54:57;101781.00;;;12.50
20289;BMP180;10303;51.960;8.372;2023-05-27T01:57:25;101775.00;;;12.50
20289;BMP180;10303;51.960;8.372;2023-05-27T01:59:51;101775.00;;;12.50
20289;BMP180;10303;51.960;8.372;2023-05-27T02:02:18;101779.00;;;12.50
20289;BMP180;10303;51.960;8.372;2023-05-27T02:04:43;101779.00;;;12.50
20289;BMP180;10303;51.960;8.372;2023-05-27T02:07:09;101775.00;;;12.40
20289;BMP180;10303;51.960;8.372;2023-05-27T02:09:36;101775.00;;;12.40
20289;BMP180;10303;51.960;8.372;2023-05-27T02:12:02;101768.00;;;12.40
20289;BMP180;10303;51.960;8.372;2023-05-27T02:14:31;101763.00;;;12.40
20289;BMP180;10303;51.960;8.372;2023-05-27T02:16:57;101766.00;;;12.40
20289;BMP180;10303;51.960;8.372;2023-05-27T02:19:23;101768.00;;;12.40
20289;BMP180;10303;51.960;8.372;2023-05-27T02:21:50;101763.00;;;12.40
20289;BMP180;10303;51.960;8.372;2023-05-27T02:24:16;101758.00;;;12.40
20289;BMP180;10303;51.960;8.372;2023-05-27T02:26:42;101757.00;;;12.40
20289;BMP180;10303;51.960;8.372;2023-05-27T02:29:08;101771.00;;;12.30
20289;BMP180;10303;51.960;8.372;2023-05-27T02:31:34;101765.00;;;12.30
20289;BMP180;10303;51.960;8.372;2023-05-27T02:34:00;101771.00;;;12.30
20289;BMP180;10303;51.960;8.372;2023-05-27T02:36:26;101766.00;;;12.30
20289;BMP180;10303;51.960;8.372;2023-05-27T02:38:53;101769.00;;;12.30
20289;BMP180;10303;51.960;8.372;2023-05-27T02:41:18;101766.00;;;12.30
20289;BMP180;10303;51.960;8.372;2023-05-27T02:43:45;101770.00;;;12.30
20289;BMP180;10303;51.960;8.372;2023-05-27T02:46:11;101760.00;;;12.20
20289;BMP180;10303;51.960;8.372;2023-05-27T02:48:37;101754.00;;;12.20
20289;BMP180;10303;51.960;8.372;2023-05-27T02:51:03;101756.00;;;12.20
20289;BMP180;10303;51.960;8.372;2023-05-27T02:53:29;101749.00;;;12.20
20289;BMP180;10303;51.960;8.372;2023-05-27T02:55:55;101759.00;;;12.20
20289;BMP180;10303;51.960;8.372;2023-05-27T02:58:21;101752.00;;;12.10
20289;BMP180;10303;51.960;8.372;2023-05-27T03:00:47;101763.00;;;12.10
20289;BMP180;10303;51.960;8.372;2023-05-27T03:03:15;101756.00;;;12.10
20289;BMP180;10303;51.960;8.372;2023-05-27T03:05:41;101757.00;;;12.10
20289;BMP180;10303;51.960;8.372;2023-05-27T03:08:07;101759.00;;;12.00
20289;BMP180;10303;51.960;8.372;2023-05-27T03:10:35;101754.00;;;12.00
20289;BMP180;10303;51.960;8.372;2023-05-27T03:13:01;101756.00;;;12.00
20289;BMP180;10303;51.960;8.372;2023-05-27T03:15:27;101763.00;;;12.00
20289;BMP180;10303;51.960;8.372;2023-05-27T03:17:57;101770.00;;;11.90
20289;BMP180;10303;51.960;8.372;2023-05-27T03:20:24;101772.00;;;11.90
20289;BMP180;10303;51.960;8.372;2023-05-27T03:22:50;101769.00;;;11.90
20289;BMP180;10303;51.960;8.372;2023-05-27T03:25:16;101766.00;;;11.80
20289;BMP180;10303;51.960;8.372;2023-05-27T03:27:42;101764.00;;;11.80
20289;BMP180;10303;51.960;8.372;2023-05-27T03:30:13;101765.00;;;11.80
20289;BMP180;10303;51.960;8.372;2023-05-27T03:32:44;101764.00;;;11.70
20289;BMP180;10303;51.960;8.372;2023-05-27T03:35:11;101758.00;;;11.70
20289;BMP180;10303;51.960;8.372;2023-05-27T03:37:37;101758.00;;;11.70
20289;BMP180;10303;51.960;8.372;2023-05-27T03:40:06;101754.00;;;11.70
20289;BMP180;10303;51.960;8.372;2023-05-27T03:42:33;101758.00;;;11.60
20289;BMP180;10303;51.960;8.372;2023-05-27T03:44:59;101752.00;;;11.60
20289;BMP180;10303;51.960;8.372;2023-05-27T03:47:27;101754.00;;;11.50
20289;BMP180;10303;51.960;8.372;2023-05-27T03:49:53;101747.00;;;11.50
20289;BMP180;10303;51.960;8.372;2023-05-27T03:52:19;101755.00;;;11.50
20289;BMP180;10303;51.960;8.372;2023-05-27T03:54:45;101749.00;;;11.50
20289;BMP180;10303;51.960;8.372;2023-05-27T03:57:12;101742.00;;;11.50
20289;BMP180;10303;51.960;8.372;2023-05-27T03:59:39;101734.00;;;11.40
20289;BMP180;10303;51.960;8.372;2023-05-27T04:02:05;101744.00;;;11.40
20289;BMP180;10303;51.960;8.372;2023-05-27T04:04:31;101745.00;;;11.40
20289;BMP180;10303;51.960;8.372;2023-05-27T04:06:57;101749.00;;;11.40
20289;BMP180;10303;51.960;8.372;2023-05-27T04:09:23;101745.00;;;11.40
20289;BMP180;10303;51.960;8.372;2023-05-27T04:11:49;101746.00;;;11.40
20289;BMP180;10303;51.960;8.372;2023-05-27T04:14:15;101741.00;;;11.40
20289;BMP180;10303;51.960;8.372;2023-05-27T04:16:40;101744.00;;;11.50
20289;BMP180;10303;51.960;8.372;2023-05-27T04:19:07;101739.00;;;11.50
20289;BMP180;10303;51.960;8.372;2023-05-27T04:21:34;101746.00;;;11.50
20289;BMP180;10303;51.960;8.372;2023-05-27T04:24:03;101745.00;;;11.50
20289;BMP180;10303;51.960;8.372;2023-05-27T04:26:30;101736.00;;;11.50
20289;BMP180;10303;51.960;8.372;2023-05-27T04:28:56;101747.00;;;11.50
20289;BMP180;10303;51.960;8.372;2023-05-27T04:31:27;101738.00;;;11.60
20289;BMP180;10303;51.960;8.372;2023-05-27T04:34:02;101731.00;;;11.60
20289;BMP180;10303;51.960;8.372;2023-05-27T04:36:29;101735.00;;;11.60
20289;BMP180;10303;51.960;8.372;2023-05-27T04:39:06;101735.00;;;11.60
20289;BMP180;10303;51.960;8.372;2023-05-27T04:41:34;101737.00;;;11.70
20289;BMP180;10303;51.960;8.372;2023-05-27T04:44:19;101739.00;;;11.70
20289;BMP180;10303;51.960;8.372;2023-05-27T04:46:48;101745.00;;;11.70
20289;BMP180;10303;51.960;8.372;2023-05-27T04:49:14;101741.00;;;11.70
20289;BMP180;10303;51.960;8.372;2023-05-27T04:51:40;101744.00;;;11.80
20289;BMP180;10303;51.960;8.372;2023-05-27T04:54:07;101740.00;;;11.80
20289;BMP180;10303;51.960;8.372;2023-05-27T04:56:34;101740.00;;;11.80
20289;BMP180;10303;51.960;8.372;2023-05-27T04:59:01;101750.00;;;11.90
20289;BMP180;10303;51.960;8.372;2023-05-27T05:01:31;101750.00;;;11.90
20289;BMP180;10303;51.960;8.372;2023-05-27T05:04:17;101744.00;;;12.00
20289;BMP180;10303;51.960;8.372;2023-05-27T05:06:54;101739.00;;;12.00
20289;BMP180;10303;51.960;8.372;2023-05-27T05:09:21;101741.00;;;12.00
20289;BMP180;10303;51.960;8.372;2023-05-27T05:11:49;101731.00;;;12.10
20289;BMP180;10303;51.960;8.372;2023-05-27T05:14:14;101734.00;;;12.10
20289;BMP180;10303;51.960;8.372;2023-05-27T05:16:40;101726.00;;;12.20
20289;BMP180;10303;51.960;8.372;2023-05-27T05:19:07;101731.00;;;12.20
20289;BMP180;10303;51.960;8.372;2023-05-27T05:21:36;101734.00;;;12.30
20289;BMP180;10303;51.960;8.372;2023-05-27T05:24:05;101727.00;;;12.30
20289;BMP180;10303;51.960;8.372;2023-05-27T05:26:32;101737.00;;;12.40
20289;BMP180;10303;51.960;8.372;2023-05-27T05:29:00;101737.00;;;12.50
20289;BMP180;10303;51.960;8.372;2023-05-27T05:31:26;101727.00;;;12.50
20289;BMP180;10303;51.960;8.372;2023-05-27T05:33:54;101734.00;;;12.60
20289;BMP180;10303;51.960;8.372;2023-05-27T05:36:19;101736.00;;;12.70
20289;BMP180;10303;51.960;8.372;2023-05-27T05:38:53;101730.00;;;12.70
20289;BMP180;10303;51.960;8.372;2023-05-27T05:41:19;101733.00;;;12.80
20289;BMP180;10303;51.960;8.372;2023-05-27T05:43:45;101734.00;;;12.90
20289;BMP180;10303;51.960;8.372;2023-05-27T05:46:12;101738.00;;;12.90
20289;BMP180;10303;51.960;8.372;2023-05-27T05:48:38;101733.00;;;13.00
20289;BMP180;10303;51.960;8.372;2023-05-27T05:51:07;101743.00;;;13.10
20289;BMP180;10303;51.960;8.372;2023-05-27T05:53:33;101741.00;;;13.20
20289;BMP180;10303;51.960;8.372;2023-05-27T05:56:00;101741.00;;;13.20
20289;BMP180;10303;51.960;8.372;2023-05-27T05:58:26;101754.00;;;13.30
20289;BMP180;10303;51.960;8.372;2023-05-27T06:00:51;101750.00;;;13.40
20289;BMP180;10303;51.960;8.372;2023-05-27T06:03:36;101764.00;;;13.40
20289;BMP180;10303;51.960;8.372;2023-05-27T06:06:04;101765.00;;;13.50
20289;BMP180;10303;51.960;8.372;2023-05-27T06:08:37;101744.00;;;13.60
20289;BMP180;10303;51.960;8.372;2023-05-27T06:11:14;101748.00;;;13.70
20289;BMP180;10303;51.960;8.372;2023-05-27T06:13:43;101757.00;;;13.80
20289;BMP180;10303;51.960;8.372;2023-05-27T06:16:11;101755.00;;;13.80
20289;BMP180;10303;51.960;8.372;2023-05-27T06:18:37;101753.00;;;13.90
20289;BMP180;10303;51.960;8.372;2023-05-27T06:21:03;101756.00;;;14.00
20289;BMP180;10303;51.960;8.372;2023-05-27T06:23:43;101752.00;;;14.10
20289;BMP180;10303;51.960;8.372;2023-05-27T06:26:14;101751.00;;;14.10
20289;BMP180;10303;51.960;8.372;2023-05-27T06:28:46;101763.00;;;14.30
20289;BMP180;10303;51.960;8.372;2023-05-27T06:31:14;101749.00;;;14.40
20289;BMP180;10303;51.960;8.372;2023-05-27T06:33:44;101759.00;;;14.40
20289;BMP180;10303;51.960;8.372;2023-05-27T06:36:11;101761.00;;;14.60
20289;BMP180;10303;51.960;8.372;2023-05-27T06:38:40;101740.00;;;14.60
20289;BMP180;10303;51.960;8.372;2023-05-27T06:41:07;101760.00;;;14.70
20289;BMP180;10303;51.960;8.372;2023-05-27T06:43:36;101752.00;;;14.80
20289;BMP180;10303;51.960;8.372;2023-05-27T06:46:38;101756.00;;;14.90
20289;BMP180;10303;51.960;8.372;2023-05-27T06:49:27;101744.00;;;15.00
20289;BMP180;10303;51.960;8.372;2023-05-27T06:51:53;101742.00;;;15.10
20289;BMP180;10303;51.960;8.372;2023-05-27T06:54:20;101741.00;;;15.20
20289;BMP180;10303;51.960;8.372;2023-05-27T06:56:46;101745.00;;;15.30
20289;BMP180;10303;51.960;8.372;2023-05-27T06:59:31;101738.00;;;15.40
20289;BMP180;10303;51.960;8.372;2023-05-27T07:01:57;101725.00;;;15.50
20289;BMP180;10303;51.960;8.372;2023-05-27T07:04:24;101730.00;;;15.60
20289;BMP180;10303;51.960;8.372;2023-05-27T07:06:54;101723.00;;;15.70
20289;BMP180;10303;51.960;8.372;2023-05-27T07:09:20;101726.00;;;15.80
20289;BMP180;10303;51.960;8.372;2023-05-27T07:11:46;101727.00;;;15.90
20289;BMP180;10303;51.960;8.372;2023-05-27T07:14:33;101715.00;;;16.00
20289;BMP180;10303;51.960;8.372;2023-05-27T07:16:59;101726.00;;;16.10
20289;BMP180;10303;51.960;8.372;2023-05-27T07:19:25;101717.00;;;16.20
20289;BMP180;10303;51.960;8.372;2023-05-27T07:21:56;101709.00;;;16.30
20289;BMP180;10303;51.960;8.372;2023-05-27T07:24:23;101708.00;;;16.40
20289;BMP180;10303;51.960;8.372;2023-05-27T07:26:51;101712.00;;;16.60
20289;BMP180;10303;51.960;8.372;2023-05-27T07:29:18;101708.00;;;16.70
20289;BMP180;10303;51.960;8.372;2023-05-27T07:32:08;101711.00;;;16.80
20289;BMP180;10303;51.960;8.372;2023-05-27T07:34:35;101707.00;;;17.00
20289;BMP180;10303;51.960;8.372;2023-05-27T07:37:02;101698.00;;;17.10
20289;BMP180;10303;51.960;8.372;2023-05-27T07:39:28;101706.00;;;17.20
20289;BMP180;10303;51.960;8.372;2023-05-27T07:41:54;101710.00;;;17.40
20289;BMP180;10303;51.960;8.372;2023-05-27T07:44:21;101697.00;;;17.50
20289;BMP180;10303;51.960;8.372;2023-05-27T07:46:47;101703.00;;;17.70
20289;BMP180;10303;51.960;8.372;2023-05-27T07:49:13;101708.00;;;17.80
20289;BMP180;10303;51.960;8.372;2023-05-27T07:51:54;101700.00;;;18.00
20289;BMP180;10303;51.960;8.372;2023-05-27T07:54:20;101694.00;;;18.10
20289;BMP180;10303;51.960;8.372;2023-05-27T07:56:46;101698.00;;;18.30
20289;BMP180;10303;51.960;8.372;2023-05-27T07:59:12;101692.00;;;18.40
20289;BMP180;10303;51.960;8.372;2023-05-27T08:01:38;101685.00;;;18.60
20289;BMP180;10303;51.960;8.372;2023-05-27T08:04:04;101686.00;;;18.80
20289;BMP180;10303;51.960;8.372;2023-05-27T08:06:50;101683.00;;;19.00
20289;BMP180;10303;51.960;8.372;2023-05-27T08:09:25;101684.00;;;19.20
20289;BMP180;10303;51.960;8.372;2023-05-27T08:12:10;101686.00;;;19.40
20289;BMP180;10303;51.960;8.372;2023-05-27T08:15:01;101681.00;;;19.60
20289;BMP180;10303;51.960;8.372;2023-05-27T08:17:27;101682.00;;;19.80
20289;BMP180;10303;51.960;8.372;2023-05-27T08:20:01;101674.00;;;20.00
20289;BMP180;10303;51.960;8.372;2023-05-27T08:22:51;101670.00;;;20.20
20289;BMP180;10303;51.960;8.372;2023-05-27T08:25:36;101665.00;;;20.40
20289;BMP180;10303;51.960;8.372;2023-05-27T08:28:22;101665.00;;;20.60
20289;BMP180;10303;51.960;8.372;2023-05-27T08:31:14;101667.00;;;20.80
20289;BMP180;10303;51.960;8.372;2023-05-27T08:33:45;101658.00;;;21.00
20289;BMP180;10303;51.960;8.372;2023-05-27T08:36:11;101650.00;;;21.20
20289;BMP180;10303;51.960;8.372;2023-05-27T08:38:44;101656.00;;;21.40
20289;BMP180;10303;51.960;8.372;2023-05-27T08:41:16;101650.00;;;21.60
20289;BMP180;10303;51.960;8.372;2023-05-27T08:43:44;101643.00;;;21.90
20289;BMP180;10303;51.960;8.372;2023-05-27T08:46:12;101648.00;;;22.10
20289;BMP180;10303;51.960;8.372;2023-05-27T08:48:41;101642.00;;;22.30
20289;BMP180;10303;51.960;8.372;2023-05-27T08:51:09;101641.00;;;22.50
20289;BMP180;10303;51.960;8.372;2023-05-27T08:53:37;101639.00;;;22.70
20289;BMP180;10303;51.960;8.372;2023-05-27T08:56:05;101627.00;;;22.80
20289;BMP180;10303;51.960;8.372;2023-05-27T08:58:35;101641.00;;;23.00
20289;BMP180;10303;51.960;8.372;2023-05-27T09:01:02;101630.00;;;23.20
20289;BMP180;10303;51.960;8.372;2023-05-27T09:03:29;101624.00;;;23.30
20289;BMP180;10303;51.960;8.372;2023-05-27T09:05:59;101625.00;;;23.50
20289;BMP180;10303;51.960;8.372;2023-05-27T09:08:30;101624.00;;;23.70
20289;BMP180;10303;51.960;8.372;2023-05-27T09:10:56;101627.00;;;23.90
20289;BMP180;10303;51.960;8.372;2023-05-27T09:13:31;101617.00;;;24.00
20289;BMP180;10303;51.960;8.372;2023-05-27T09:16:02;101613.00;;;24.20
20289;BMP180;10303;51.960;8.372;2023-05-27T09:18:35;101608.00;;;24.30
20289;BMP180;10303;51.960;8.372;2023-05-27T09:21:01;101605.00;;;24.50
20289;BMP180;10303;51.960;8.372;2023-05-27T09:23:27;101607.00;;;24.70
20289;BMP180;10303;51.960;8.372;2023-05-27T09:25:54;101607.00;;;24.80
20289;BMP180;10303;51.960;8.372;2023-05-27T09:28:24;101612.00;;;24.90
20289;BMP180;10303;51.960;8.372;2023-05-27T09:31:05;101604.00;;;25.00
20289;BMP180;10303;51.960;8.372;2023-05-27T09:33:39;101604.00;;;25.10
20289;BMP180;10303;51.960;8.372;2023-05-27T09:36:07;101603.00;;;25.10
20289;BMP180;10303;51.960;8.372;2023-05-27T09:38:35;101596.00;;;25.20
20289;BMP180;10303;51.960;8.372;2023-05-27T09:41:03;101595.00;;;25.30
20289;BMP180;10303;51.960;8.372;2023-05-27T09:43:30;101603.00;;;25.40
20289;BMP180;10303;51.960;8.372;2023-05-27T09:46:03;101597.00;;;25.50
20289;BMP180;10303;51.960;8.372;2023-05-27T09:48:33;101597.00;;;25.70
20289;BMP180;10303;51.960;8.372;2023-05-27T09:51:00;101600.00;;;25.90
20289;BMP180;10303;51.960;8.372;2023-05-27T09:53:28;101600.00;;;26.00
20289;BMP180;10303;51.960;8.372;2023-05-27T09:55:54;101590.00;;;26.10
20289;BMP180;10303;51.960;8.372;2023-05-27T09:58:22;101596.00;;;26.20
20289;BMP180;10303;51.960;8.372;2023-05-27T10:00:49;101594.00;;;26.30
20289;BMP180;10303;51.960;8.372;2023-05-27T10:03:22;101591.00;;;26.40
20289;BMP180;10303;51.960;8.372;2023-05-27T10:05:51;101584.00;;;26.40
20289;BMP180;10303;51.960;8.372;2023-05-27T10:08:20;101589.00;;;26.40
20289;BMP180;10303;51.960;8.372;2023-05-27T10:10:47;101583.00;;;26.40
20289;BMP180;10303;51.960;8.372;2023-05-27T10:13:19;101579.00;;;26.50
20289;BMP180;10303;51.960;8.372;2023-05-27T10:15:48;101575.00;;;26.50
20289;BMP180;10303;51.960;8.372;2023-05-27T10:18:28;101572.00;;;26.50
20289;BMP180;10303;51.960;8.372;2023-05-27T10:20:56;101577.00;;;26.70
20289;BMP180;10303;51.960;8.372;2023-05-27T10:23:29;101575.00;;;26.80
20289;BMP180;10303;51.960;8.372;2023-05-27T10:26:07;101574.00;;;26.90
20289;BMP180;10303;51.960;8.372;2023-05-27T10:28:39;101576.00;;;27.00
20289;BMP180;10303;51.960;8.372;2023-05-27T10:31:16;101574.00;;;27.00
20289;BMP180;10303;51.960;8.372;2023-05-27T10:33:47;101578.00;;;27.20
20289;BMP180;10303;51.960;8.372;2023-05-27T10:36:17;101572.00;;;27.40
20289;BMP180;10303;51.960;8.372;2023-05-27T10:39:02;101552.00;;;27.50
20289;BMP180;10303;51.960;8.372;2023-05-27T10:41:58;101571.00;;;27.50
20289;BMP180;10303;51.960;8.372;2023-05-27T10:44:37;101558.00;;;27.70
20289;BMP180;10303;51.960;8.372;2023-05-27T10:47:13;101568.00;;;27.90
20289;BMP180;10303;51.960;8.372;2023-05-27T10:49:47;101558.00;;;28.00
20289;BMP180;10303;51.960;8.372;2023-05-27T10:52:16;101558.00;;;28.30
20289;BMP180;10303;51.960;8.372;2023-05-27T10:54:47;101548.00;;;28.50
20289;BMP180;10303;51.960;8.372;2023-05-27T10:57:14;101550.00;;;28.70
20289;BMP180;10303;51.960;8.372;2023-05-27T10:59:54;101551.00;;;28.90
20289;BMP180;10303;51.960;8.372;2023-05-27T11:02:23;101553.00;;;29.00
20289;BMP180;10303;51.960;8.372;2023-05-27T11:04:50;101549.00;;;29.10
20289;BMP180;10303;51.960;8.372;2023-05-27T11:07:20;101540.00;;;29.20
20289;BMP180;10303;51.960;8.372;2023-05-27T11:09:52;101543.00;;;29.30
20289;BMP180;10303;51.960;8.372;2023-05-27T11:12:20;101549.00;;;29.30
20289;BMP180;10303;51.960;8.372;2023-05-27T11:14:54;101542.00;;;29.40
20289;BMP180;10303;51.960;8.372;2023-05-27T11:17:21;101532.00;;;29.50
20289;BMP180;10303;51.960;8.372;2023-05-27T11:19:48;101537.00;;;29.60
20289;BMP180;10303;51.960;8.372;2023-05-27T11:22:16;101534.00;;;29.60
20289;BMP180;10303;51.960;8.372;2023-05-27T11:27:22;101517.00;;;29.80
20289;BMP180;10303;51.960;8.372;2023-05-27T11:29:52;101517.00;;;29.80
20289;BMP180;10303;51.960;8.372;2023-05-27T11:32:19;101521.00;;;29.80
20289;BMP180;10303;51.960;8.372;2023-05-27T11:34:48;101516.00;;;29.70
20289;BMP180;10303;51.960;8.372;2023-05-27T11:37:15;101518.00;;;29.60
20289;BMP180;10303;51.960;8.372;2023-05-27T11:39:52;101510.00;;;29.60
20289;BMP180;10303;51.960;8.372;2023-05-27T11:42:22;101506.00;;;29.80
20289;BMP180;10303;51.960;8.372;2023-05-27T11:44:53;101505.00;;;29.90
20289;BMP180;10303;51.960;8.372;2023-05-27T11:47:20;101508.00;;;30.10
20289;BMP180;10303;51.960;8.372;2023-05-27T11:49:49;101503.00;;;30.10
20289;BMP180;10303;51.960;8.372;2023-05-27T11:52:15;101503.00;;;30.20
20289;BMP180;10303;51.960;8.372;2023-05-27T11:54:41;101490.00;;;30.20
20289;BMP180;10303;51.960;8.372;2023-05-27T11:57:07;101492.00;;;30.20
20289;BMP180;10303;51.960;8.372;2023-05-27T11:59:36;101484.00;;;30.30
20289;BMP180;10303;51.960;8.372;2023-05-27T12:02:03;101486.00;;;30.40
20289;BMP180;10303;51.960;8.372;2023-05-27T12:04:30;101476.00;;;30.40
20289;BMP180;10303;51.960;8.372;2023-05-27T12:06:56;101481.00;;;30.50
20289;BMP180;10303;51.960;8.372;2023-05-27T12:09:24;101470.00;;;30.50
20289;BMP180;10303;51.960;8.372;2023-05-27T12:11:50;101472.00;;;30.50
20289;BMP180;10303;51.960;8.372;2023-05-27T12:14:16;101464.00;;;30.60
20289;BMP180;10303;51.960;8.372;2023-05-27T12:16:41;101461.00;;;30.60
20289;BMP180;10303;51.960;8.372;2023-05-27T12:19:07;101459.00;;;30.70
20289;BMP180;10303;51.960;8.372;2023-05-27T12:21:37;101457.00;;;30.70
20289;BMP180;10303;51.960;8.372;2023-05-27T12:24:03;101452.00;;;30.80
20289;BMP180;10303;51.960;8.372;2023-05-27T12:26:29;101447.00;;;30.80
20289;BMP180;10303;51.960;8.372;2023-05-27T12:28:55;101444.00;;;30.90
20289;BMP180;10303;51.960;8.372;2023-05-27T12:31:22;101437.00;;;31.00
20289;BMP180;10303;51.960;8.372;2023-05-27T12:33:49;101431.00;;;31.00
20289;BMP180;10303;51.960;8.372;2023-05-27T12:36:15;101432.00;;;31.20
20289;BMP180;10303;51.960;8.372;2023-05-27T12:38:41;101436.00;;;31.30
20289;BMP180;10303;51.960;8.372;2023-05-27T12:41:07;101444.00;;;31.30
20289;BMP180;10303;51.960;8.372;2023-05-27T12:43:33;101437.00;;;31.30
20289;BMP180;10303;51.960;8.372;2023-05-27T12:45:59;101436.00;;;31.40
20289;BMP180;10303;51.960;8.372;2023-05-27T12:48:25;101428.00;;;31.60
20289;BMP180;10303;51.960;8.372;2023-05-27T12:50:51;101434.00;;;31.60
20289;BMP180;10303;51.960;8.372;2023-05-27T12:53:18;101429.00;;;31.50
20289;BMP180;10303;51.960;8.372;2023-05-27T12:55:44;101418.00;;;31.50
20289;BMP180;10303;51.960;8.372;2023-05-27T12:58:10;101426.00;;;31.50
20289;BMP180;10303;51.960;8.372;2023-05-27T13:00:36;101416.00;;;31.50
20289;BMP180;10303;51.960;8.372;2023-05-27T13:03:02;101413.00;;;31.50
20289;BMP180;10303;51.960;8.372;2023-05-27T13:05:29;101404.00;;;31.50
20289;BMP180;10303;51.960;8.372;2023-05-27T13:08:01;101402.00;;;31.50
20289;BMP180;10303;51.960;8.372;2023-05-27T13:10:28;101398.00;;;31.50
20289;BMP180;10303;51.960;8.372;2023-05-27T13:12:55;101393.00;;;31.60
20289;BMP180;10303;51.960;8.372;2023-05-27T13:15:21;101387.00;;;31.50
20289;BMP180;10303;51.960;8.372;2023-05-27T13:17:51;101390.00;;;31.40
20289;BMP180;10303;51.960;8.372;2023-05-27T13:20:20;101393.00;;;31.40
20289;BMP180;10303;51.960;8.372;2023-05-27T13:22:47;101389.00;;;31.40
20289;BMP180;10303;51.960;8.372;2023-05-27T13:25:14;101385.00;;;31.30
20289;BMP180;10303;51.960;8.372;2023-05-27T13:27:42;101380.00;;;31.20
20289;BMP180;10303;51.960;8.372;2023-05-27T13:30:12;101385.00;;;30.90
20289;BMP180;10303;51.960;8.372;2023-05-27T13:32:40;101380.00;;;30.80
20289;BMP180;10303;51.960;8.372;2023-05-27T13:35:06;101372.00;;;30.60
20289;BMP180;10303;51.960;8.372;2023-05-27T13:37:32;101372.00;;;30.50
20289;BMP180;10303;51.960;8.372;2023-05-27T13:39:58;101370.00;;;30.50
20289;BMP180;10303;51.960;8.372;2023-05-27T13:42:24;101366.00;;;30.40
20289;BMP180;10303;51.960;8.372;2023-05-27T13:44:50;101357.00;;;30.40
20289;BMP180;10303;51.960;8.372;2023-05-27T13:47:16;101347.00;;;30.30
20289;BMP180;10303;51.960;8.372;2023-05-27T13:49:42;101356.00;;;30.20
20289;BMP180;10303;51.960;8.372;2023-05-27T13:52:07;101359.00;;;30.10
20289;BMP180;10303;51.960;8.372;2023-05-27T13:54:34;101337.00;;;30.00
20289;BMP180;10303;51.960;8.372;2023-05-27T13:57:00;101337.00;;;29.90
20289;BMP180;10303;51.960;8.372;2023-05-27T13:59:26;101344.00;;;29.80
20289;BMP180;10303;51.960;8.372;2023-05-27T14:01:52;101346.00;;;29.70
20289;BMP180;10303;51.960;8.372;2023-05-27T14:04:19;101341.00;;;29.60
20289;BMP180;10303;51.960;8.372;2023-05-27T14:06:46;101333.00;;;29.50
20289;BMP180;10303;51.960;8.372;2023-05-27T14:09:12;101332.00;;;29.40
20289;BMP180;10303;51.960;8.372;2023-05-27T14:11:38;101319.00;;;29.30